createdAt,value
2022-10-23T00:00:19.707Z,13.01
2022-10-23T00:03:44.460Z,12.98
2022-10-23T00:07:05.856Z,12.97
2022-10-23T00:10:29.387Z,12.93
2022-10-23T00:13:54.849Z,12.92
2022-10-23T00:17:16.217Z,12.91
2022-10-23T00:20:37.653Z,12.85
2022-10-23T00:23:59.479Z,12.82
2022-10-23T00:27:21.269Z,12.80
2022-10-23T00:30:44.595Z,12.77
2022-10-23T00:34:08.392Z,12.79
2022-10-23T00:37:30.385Z,12.82
2022-10-23T00:40:52.547Z,12.82
2022-10-23T00:44:47.611Z,12.86
2022-10-23T00:48:10.954Z,12.92
2022-10-23T00:51:37.201Z,12.95
2022-10-23T00:54:59.371Z,12.99
2022-10-23T00:58:22.231Z,13.01
2022-10-23T01:01:43.977Z,13.06
2022-10-23T01:05:08.940Z,13.09
2022-10-23T01:08:36.418Z,13.13
2022-10-23T01:12:02.224Z,13.16
2022-10-23T01:15:30.466Z,13.20
2022-10-23T01:18:56.410Z,13.24
2022-10-23T01:22:38.828Z,13.27
2022-10-23T01:26:11.320Z,13.31
2022-10-23T01:29:40.384Z,13.35
2022-10-23T01:33:07.852Z,13.37
2022-10-23T01:36:40.840Z,13.39
2022-10-23T01:40:06.426Z,13.43
2022-10-23T01:43:33.700Z,13.44
2022-10-23T01:46:58.770Z,13.48
2022-10-23T01:50:25.177Z,13.50
2022-10-23T01:53:59.217Z,13.52
2022-10-23T01:57:23.405Z,13.55
2022-10-23T02:00:46.664Z,13.56
2022-10-23T02:04:12.736Z,13.57
2022-10-23T02:07:35.156Z,13.58
2022-10-23T02:11:06.888Z,13.58
2022-10-23T02:14:37.581Z,13.59
2022-10-23T02:18:09.583Z,13.58
2022-10-23T02:21:40.121Z,13.58
2022-10-23T02:25:10.070Z,13.55
2022-10-23T02:28:41.378Z,13.51
2022-10-23T02:32:04.794Z,13.49
2022-10-23T02:35:27.049Z,13.46
2022-10-23T02:38:59.329Z,13.42
2022-10-23T02:42:24.982Z,13.42
2022-10-23T02:45:55.101Z,13.41
2022-10-23T02:49:21.085Z,13.39
2022-10-23T02:52:52.251Z,13.37
2022-10-23T02:56:21.712Z,13.37
2022-10-23T02:59:46.454Z,13.37
2022-10-23T03:03:14.449Z,13.32
2022-10-23T03:06:36.817Z,13.32
2022-10-23T03:09:58.248Z,13.31
2022-10-23T03:13:21.708Z,13.30
2022-10-23T03:16:43.703Z,13.31
2022-10-23T03:20:05.789Z,13.30
2022-10-23T03:23:27.342Z,13.27
2022-10-23T03:26:49.130Z,13.26
2022-10-23T03:30:13.339Z,13.24
2022-10-23T03:33:35.546Z,13.21
2022-10-23T03:37:06.537Z,13.18
2022-10-23T03:40:28.273Z,13.14
2022-10-23T03:43:50.013Z,13.11
2022-10-23T03:47:12.874Z,13.07
2022-10-23T03:50:37.039Z,13.02
2022-10-23T03:54:00.208Z,12.98
2022-10-23T03:57:21.621Z,12.95
2022-10-23T04:04:12.423Z,12.85
2022-10-23T04:07:36.524Z,12.82
2022-10-23T04:10:58.811Z,12.80
2022-10-23T04:14:29.443Z,12.74
2022-10-23T04:17:51.371Z,12.70
2022-10-23T04:21:15.649Z,12.63
2022-10-23T04:24:36.842Z,12.59
2022-10-23T04:27:58.487Z,12.55
2022-10-23T04:31:20.115Z,12.51
2022-10-23T04:34:41.782Z,12.47
2022-10-23T04:38:04.889Z,12.42
2022-10-23T04:41:26.649Z,12.39
2022-10-23T04:44:48.388Z,12.34
2022-10-23T04:48:10.316Z,12.29
2022-10-23T04:51:49.661Z,12.25
2022-10-23T04:55:30.692Z,12.20
2022-10-23T04:59:06.713Z,12.13
2022-10-23T05:02:28.885Z,12.06
2022-10-23T05:05:50.563Z,11.99
2022-10-23T05:09:30.611Z,11.93
2022-10-23T05:13:06.203Z,11.88
2022-10-23T05:16:37.967Z,11.81
2022-10-23T05:20:02.910Z,11.74
2022-10-23T05:23:26.335Z,11.69
2022-10-23T05:26:52.895Z,11.63
2022-10-23T05:30:17.185Z,11.57
2022-10-23T05:33:41.008Z,11.52
2022-10-23T05:37:03.493Z,11.47
2022-10-23T05:40:30.268Z,11.40
2022-10-23T05:43:57.844Z,11.35
2022-10-23T05:47:40.266Z,11.28
2022-10-23T05:51:24.998Z,11.21
2022-10-23T05:55:11.525Z,11.14
2022-10-23T05:58:43.252Z,11.08
2022-10-23T06:02:40.318Z,11.02
2022-10-23T06:06:15.522Z,10.96
2022-10-23T06:09:42.964Z,10.88
2022-10-23T06:13:05.207Z,10.84
2022-10-23T06:16:28.285Z,10.81
2022-10-23T06:19:51.306Z,10.77
2022-10-23T06:23:13.406Z,10.73
2022-10-23T06:26:54.290Z,10.68
2022-10-23T06:30:27.074Z,10.65
2022-10-23T06:33:50.723Z,10.64
2022-10-23T06:37:13.913Z,10.63
2022-10-23T06:40:54.329Z,10.62
2022-10-23T06:44:23.900Z,10.60
2022-10-23T06:47:54.107Z,10.64
2022-10-23T06:51:34.719Z,10.67
2022-10-23T06:54:59.365Z,10.67
2022-10-23T06:58:28.641Z,10.67
2022-10-23T07:02:03.391Z,10.69
2022-10-23T07:05:25.750Z,10.73
2022-10-23T07:08:48.410Z,10.76
2022-10-23T07:12:36.683Z,10.82
2022-10-23T07:20:09.821Z,10.96
2022-10-23T07:23:32.025Z,11.00
2022-10-23T07:26:54.668Z,11.04
2022-10-23T07:30:22.663Z,11.07
2022-10-23T07:33:48.915Z,11.10
2022-10-23T07:37:13.868Z,11.13
2022-10-23T07:40:36.939Z,11.17
2022-10-23T07:43:59.463Z,11.22
2022-10-23T07:47:24.285Z,11.27
2022-10-23T07:50:47.020Z,11.36
2022-10-23T07:54:11.063Z,11.43
2022-10-23T07:57:51.660Z,11.51
2022-10-23T08:01:34.604Z,11.61
2022-10-23T08:04:58.040Z,11.67
2022-10-23T08:08:29.779Z,11.76
2022-10-23T08:11:58.259Z,11.82
2022-10-23T08:15:22.981Z,11.89
2022-10-23T08:18:54.319Z,11.96
2022-10-23T08:22:22.797Z,12.02
2022-10-23T08:25:48.443Z,12.09
2022-10-23T08:29:12.811Z,12.18
2022-10-23T08:32:56.024Z,12.25
2022-10-23T08:36:19.660Z,12.33
2022-10-23T08:39:43.298Z,12.40
2022-10-23T08:43:18.803Z,12.45
2022-10-23T08:47:01.709Z,12.49
2022-10-23T08:51:01.107Z,12.55
2022-10-23T08:54:27.607Z,12.61
2022-10-23T08:58:00.456Z,12.68
2022-10-23T09:01:32.455Z,12.73
2022-10-23T09:04:56.510Z,12.82
2022-10-23T09:08:33.553Z,12.93
2022-10-23T09:12:05.153Z,13.00
2022-10-23T09:15:32.491Z,13.12
2022-10-23T09:18:56.210Z,13.24
2022-10-23T09:22:18.200Z,13.29
2022-10-23T09:25:43.803Z,13.37
2022-10-23T09:29:19.569Z,13.46
2022-10-23T09:32:47.862Z,13.60
2022-10-23T09:36:19.778Z,13.69
2022-10-23T09:43:28.428Z,13.88
2022-10-23T09:47:01.581Z,14.00
2022-10-23T09:50:25.070Z,14.15
2022-10-23T09:53:54.765Z,14.29
2022-10-23T09:57:23.890Z,14.40
2022-10-23T10:00:52.276Z,14.52
2022-10-23T10:04:38.270Z,14.64
2022-10-23T10:08:22.626Z,14.73
2022-10-23T10:11:50.314Z,14.85
2022-10-23T10:15:22.265Z,14.93
2022-10-23T10:18:57.315Z,15.03
2022-10-23T10:22:32.385Z,15.14
2022-10-23T10:26:03.379Z,15.23
2022-10-23T10:29:43.175Z,15.32
2022-10-23T10:33:16.029Z,15.40
2022-10-23T10:36:48.847Z,15.47
2022-10-23T10:40:21.970Z,15.56
2022-10-23T10:43:55.824Z,15.60
2022-10-23T10:47:24.417Z,15.65
2022-10-23T10:50:52.535Z,15.71
2022-10-23T10:54:37.693Z,15.78
2022-10-23T10:58:05.385Z,15.84
2022-10-23T11:01:34.301Z,15.89
2022-10-23T11:05:04.064Z,15.96
2022-10-23T11:08:44.526Z,16.00
2022-10-23T11:12:27.412Z,16.06
2022-10-23T11:19:25.236Z,16.19
2022-10-23T11:22:56.697Z,16.23
2022-10-23T11:26:42.827Z,16.31
2022-10-23T11:30:24.102Z,16.38
2022-10-23T11:34:06.499Z,16.47
2022-10-23T11:37:30.828Z,16.54
2022-10-23T11:40:57.088Z,16.58
2022-10-23T11:44:29.485Z,16.62
2022-10-23T11:47:59.511Z,16.69
2022-10-23T11:51:31.515Z,16.72
2022-10-23T11:55:07.402Z,16.76
2022-10-23T11:58:41.858Z,16.82
2022-10-23T12:02:22.878Z,16.87
2022-10-23T12:05:46.244Z,16.95
2022-10-23T12:09:23.836Z,16.99
2022-10-23T12:12:57.501Z,17.04
2022-10-23T12:16:20.175Z,17.11
2022-10-23T12:19:51.459Z,17.15
2022-10-23T12:23:37.211Z,17.20
2022-10-23T12:27:09.163Z,17.25
2022-10-23T12:30:47.666Z,17.28
2022-10-23T12:34:24.286Z,17.34
2022-10-23T12:38:01.077Z,17.41
2022-10-23T12:41:28.512Z,17.44
2022-10-23T12:45:00.516Z,17.46
2022-10-23T12:48:27.744Z,17.53
2022-10-23T12:51:57.952Z,17.55
2022-10-23T12:55:20.309Z,17.59
2022-10-23T12:58:48.975Z,17.63
2022-10-23T13:02:22.998Z,17.68
2022-10-23T13:05:46.378Z,17.73
2022-10-23T13:09:20.709Z,17.78
2022-10-23T13:12:57.980Z,17.81
2022-10-23T13:16:21.677Z,17.85
2022-10-23T13:19:43.252Z,17.90
2022-10-23T13:23:17.925Z,17.92
2022-10-23T13:26:45.127Z,17.96
2022-10-23T13:30:31.122Z,17.99
2022-10-23T13:34:05.395Z,18.00
2022-10-23T13:37:30.891Z,18.04
2022-10-23T13:40:59.226Z,18.06
2022-10-23T13:44:23.019Z,18.10
2022-10-23T13:47:45.210Z,18.11
2022-10-23T13:51:13.675Z,18.13
2022-10-23T13:54:35.114Z,18.13
2022-10-23T13:57:59.392Z,18.11
2022-10-23T14:01:24.305Z,18.10
2022-10-23T14:04:46.350Z,18.08
2022-10-23T14:08:08.440Z,18.07
2022-10-23T14:11:30.770Z,18.07
2022-10-23T14:14:54.249Z,18.05
2022-10-23T14:18:16.222Z,18.05
2022-10-23T14:21:38.069Z,18.04
2022-10-23T14:24:59.401Z,18.03
2022-10-23T14:28:21.669Z,18.03
2022-10-23T14:31:44.307Z,18.03
2022-10-23T14:35:06.772Z,18.01
2022-10-23T14:38:28.669Z,18.01
2022-10-23T14:41:50.254Z,17.97
2022-10-23T14:45:12.116Z,17.94
2022-10-23T14:48:37.637Z,17.91
2022-10-23T14:51:59.161Z,17.86
2022-10-23T14:55:20.684Z,17.79
2022-10-23T14:58:43.387Z,17.71
2022-10-23T15:02:05.157Z,17.64
2022-10-23T15:05:28.213Z,17.57
2022-10-23T15:08:50.721Z,17.50
2022-10-23T15:12:12.267Z,17.42
2022-10-23T15:15:33.612Z,17.34
2022-10-23T15:18:55.441Z,17.27
2022-10-23T15:22:19.538Z,17.19
2022-10-23T15:25:42.050Z,17.14
2022-10-23T15:29:03.890Z,17.09
2022-10-23T15:32:25.354Z,17.02
2022-10-23T15:35:46.999Z,16.96
2022-10-23T15:39:11.813Z,16.90
2022-10-23T15:42:33.591Z,16.82
2022-10-23T15:45:54.917Z,16.76
2022-10-23T15:49:16.549Z,16.70
2022-10-23T15:52:38.015Z,16.63
2022-10-23T15:56:01.094Z,16.59
2022-10-23T15:59:24.500Z,16.53
2022-10-23T16:02:46.437Z,16.48
2022-10-23T16:06:10.641Z,16.43
2022-10-23T16:09:35.020Z,16.38
2022-10-23T16:12:58.009Z,16.32
2022-10-23T16:16:19.752Z,16.26
2022-10-23T16:19:41.536Z,16.20
2022-10-23T16:23:02.967Z,16.14
2022-10-23T16:26:24.808Z,16.09
2022-10-23T16:29:47.960Z,16.03
2022-10-23T16:33:09.596Z,16.00
2022-10-23T16:36:31.350Z,15.97
2022-10-23T16:40:04.989Z,15.94
2022-10-23T16:43:44.965Z,15.89
2022-10-23T16:47:22.212Z,15.84
2022-10-23T16:50:43.396Z,15.80
2022-10-23T16:54:05.348Z,15.77
2022-10-23T16:57:27.979Z,15.73
2022-10-23T17:00:57.022Z,15.71
2022-10-23T17:04:20.017Z,15.70
2022-10-23T17:07:41.903Z,15.69
2022-10-23T17:11:08.639Z,15.67
2022-10-23T17:14:30.087Z,15.66
2022-10-23T17:17:51.748Z,15.65
2022-10-23T17:21:16.054Z,15.67
2022-10-23T17:24:37.665Z,15.68
2022-10-23T17:27:59.199Z,15.68
2022-10-23T17:31:22.552Z,15.68
2022-10-23T17:34:43.745Z,15.68
2022-10-23T17:38:06.846Z,15.68
2022-10-23T17:41:28.626Z,15.68
2022-10-23T17:44:50.348Z,15.67
2022-10-23T17:48:13.041Z,15.66
2022-10-23T17:51:36.352Z,15.67
2022-10-23T17:54:59.124Z,15.66
2022-10-23T17:58:20.462Z,15.65
2022-10-23T18:01:43.877Z,15.64
2022-10-23T18:05:06.357Z,15.65
2022-10-23T18:08:27.946Z,15.67
2022-10-23T18:11:51.656Z,15.67
2022-10-23T18:15:13.144Z,15.68
2022-10-23T18:18:35.602Z,15.69
2022-10-23T18:21:57.583Z,15.68
2022-10-23T18:25:19.815Z,15.66
2022-10-23T18:28:42.551Z,15.65
2022-10-23T18:32:04.206Z,15.64
2022-10-23T18:35:26.193Z,15.62
2022-10-23T18:38:47.692Z,15.61
2022-10-23T18:42:09.322Z,15.57
2022-10-23T18:45:32.731Z,15.58
2022-10-23T18:48:54.708Z,15.56
2022-10-23T18:52:16.101Z,15.52
2022-10-23T18:55:37.556Z,15.52
2022-10-23T18:59:00.601Z,15.47
2022-10-23T19:02:23.773Z,15.42
2022-10-23T19:05:46.787Z,15.38
2022-10-23T19:09:10.351Z,15.33
2022-10-23T19:12:31.796Z,15.31
2022-10-23T19:15:53.799Z,15.29
2022-10-23T19:19:20.957Z,15.29
2022-10-23T19:22:44.356Z,15.30
2022-10-23T19:26:08.836Z,15.30
2022-10-23T19:29:30.997Z,15.29
2022-10-23T19:32:52.514Z,15.29
2022-10-23T19:36:17.554Z,15.29
2022-10-23T19:39:40.317Z,15.26
2022-10-23T19:43:01.904Z,15.24
2022-10-23T19:46:23.623Z,15.21
2022-10-23T19:49:45.612Z,15.17
2022-10-23T19:53:08.906Z,15.13
2022-10-23T19:56:30.183Z,15.09
2022-10-23T19:59:52.619Z,15.04
2022-10-23T20:03:14.455Z,15.02
2022-10-23T20:06:37.561Z,15.01
2022-10-23T20:10:00.922Z,14.98
2022-10-23T20:13:23.130Z,14.96
2022-10-23T20:16:47.099Z,14.94
2022-10-23T20:20:09.480Z,14.93
2022-10-23T20:23:30.926Z,14.90
2022-10-23T20:26:56.058Z,14.88
2022-10-23T20:30:17.633Z,14.87
2022-10-23T20:33:40.565Z,14.85
2022-10-23T20:37:02.169Z,14.82
2022-10-23T20:40:23.987Z,14.78
2022-10-23T20:43:46.823Z,14.75
2022-10-23T20:47:08.415Z,14.72
2022-10-23T20:50:30.362Z,14.69
2022-10-23T20:53:54.539Z,14.64
2022-10-23T20:57:19.161Z,14.57
2022-10-23T21:00:44.084Z,14.52
2022-10-23T21:04:06.231Z,14.46
2022-10-23T21:07:27.800Z,14.41
2022-10-23T21:10:49.225Z,14.39
2022-10-23T21:14:10.745Z,14.39
2022-10-23T21:17:36.004Z,14.35
2022-10-23T21:20:57.869Z,14.32
2022-10-23T21:24:19.275Z,14.30
2022-10-23T21:27:40.691Z,14.27
2022-10-23T21:31:06.999Z,14.26
2022-10-23T21:34:30.285Z,14.24
2022-10-23T21:37:52.058Z,14.21
2022-10-23T21:41:15.290Z,14.20
2022-10-23T21:44:37.160Z,14.18
2022-10-23T21:47:58.854Z,14.16
2022-10-23T21:51:24.588Z,14.15
2022-10-23T21:54:46.221Z,14.15
2022-10-23T21:58:07.962Z,14.14
2022-10-23T22:01:30.318Z,14.13
2022-10-23T22:04:51.759Z,14.12
2022-10-23T22:08:14.821Z,14.09
2022-10-23T22:11:36.706Z,14.11
2022-10-23T22:14:58.377Z,14.07
2022-10-23T22:18:20.094Z,14.05
2022-10-23T22:21:41.783Z,14.02
2022-10-23T22:25:05.567Z,13.98
2022-10-23T22:28:27.006Z,13.96
2022-10-23T22:31:50.128Z,13.93
2022-10-23T22:35:11.999Z,13.91
2022-10-23T22:38:33.255Z,13.89
2022-10-23T22:41:56.027Z,13.89
2022-10-23T22:45:18.024Z,13.88
2022-10-23T22:48:39.587Z,13.89
2022-10-23T22:52:01.232Z,13.91
2022-10-23T22:55:22.458Z,13.93
2022-10-23T22:58:45.858Z,13.93
2022-10-23T23:02:08.236Z,13.96
2022-10-23T23:05:29.975Z,13.99
2022-10-23T23:08:52.624Z,14.00
2022-10-23T23:12:15.513Z,14.05
2022-10-23T23:15:41.998Z,14.11
2022-10-23T23:19:05.546Z,14.18
2022-10-23T23:25:53.438Z,14.25
2022-10-23T23:29:14.679Z,14.31
2022-10-23T23:32:37.576Z,14.36
2022-10-23T23:35:58.976Z,14.43
2022-10-23T23:39:20.704Z,14.47
2022-10-23T23:42:42.756Z,14.52
2022-10-23T23:46:04.385Z,14.55
2022-10-23T23:49:27.608Z,14.61
2022-10-23T23:52:49.141Z,14.64
2022-10-23T23:56:10.993Z,14.69
2022-10-23T23:59:36.990Z,14.72
